Terminal Aerodrome Forecast
Issued by NWS Greer, SC

Home | Current Version | Previous Version | Text Only | Print | Product List | Glossary On
Versions: 1 2 3 4 5 6 7 8 9 10 11 12 13
000
FTUS42 KGSP 241126
TAFGSP
TAF
KGSP 241126Z 2412/2512 12006KT P6SM FEW250
     FM241700 14010KT P6SM FEW060
     FM250200 11005KT P6SM FEW250
     FM250800 08004KT P6SM BKN020
     FM250900 08003KT P6SM BKN015
     FM251000 07003KT P6SM BKN008=

USA.gov is the U.S. government's official web portal to all federal, state and local government web resources and services.